createdAt,value
2019-06-08T00:00:48.729Z,987.83
2019-06-08T00:01:48.940Z,987.82
2019-06-08T00:02:51.080Z,987.78
2019-06-08T00:03:49.266Z,987.76
2019-06-08T00:04:52.072Z,987.80
2019-06-08T00:05:51.589Z,987.82
2019-06-08T00:06:50.819Z,987.78
2019-06-08T00:07:50.028Z,987.85
2019-06-08T00:08:50.229Z,987.81
2019-06-08T00:09:50.477Z,987.75
2019-06-08T00:10:50.702Z,987.78
2019-06-08T00:11:50.904Z,987.74
2019-06-08T00:12:51.118Z,987.78
2019-06-08T00:13:51.338Z,987.79
2019-06-08T00:14:51.539Z,987.83
2019-06-08T00:15:55.582Z,987.92
2019-06-08T00:16:51.907Z,987.94
2019-06-08T00:17:52.175Z,987.96
2019-06-08T00:18:52.336Z,988.04
2019-06-08T00:19:52.539Z,988.00
2019-06-08T00:20:52.755Z,987.98
2019-06-08T00:21:52.963Z,988.05
2019-06-08T00:22:53.181Z,988.06
2019-06-08T00:23:55.074Z,988.18
2019-06-08T00:24:53.527Z,988.17
2019-06-08T00:25:57.571Z,988.21
2019-06-08T00:26:55.618Z,988.16
2019-06-08T00:27:54.042Z,988.10
2019-06-08T00:28:54.269Z,988.15
2019-06-08T00:29:54.486Z,988.13
2019-06-08T00:30:54.572Z,988.10
2019-06-08T00:31:56.617Z,988.06
2019-06-08T00:32:54.960Z,988.04
2019-06-08T00:33:55.143Z,988.03
2019-06-08T00:34:55.365Z,988.00
2019-06-08T00:35:57.073Z,987.96
2019-06-08T00:36:55.785Z,987.92
2019-06-08T00:37:57.584Z,987.90
2019-06-08T00:38:56.157Z,987.92
2019-06-08T00:39:56.370Z,987.96
2019-06-08T00:40:56.583Z,988.02
2019-06-08T00:41:56.791Z,988.03
2019-06-08T00:42:57.003Z,988.07
2019-06-08T00:43:57.216Z,987.98
2019-06-08T00:44:57.427Z,987.97
2019-06-08T00:45:59.586Z,988.04
2019-06-08T00:46:57.840Z,988.00
2019-06-08T00:47:58.058Z,988.08
2019-06-08T00:49:00.080Z,988.04
2019-06-08T00:49:58.407Z,988.09
2019-06-08T00:50:58.649Z,988.07
2019-06-08T00:51:58.765Z,988.05
2019-06-08T00:53:01.581Z,988.11
2019-06-08T00:53:59.187Z,988.07
2019-06-08T00:54:59.416Z,988.03
2019-06-08T00:55:59.609Z,988.05
2019-06-08T00:56:59.811Z,988.08
2019-06-08T00:58:00.017Z,988.14
2019-06-08T00:59:00.266Z,988.14
2019-06-08T01:00:00.449Z,988.11
2019-06-08T01:01:00.689Z,988.09
2019-06-08T01:02:00.878Z,988.07
2019-06-08T01:03:01.098Z,988.03
2019-06-08T01:04:01.301Z,988.12
2019-06-08T01:05:01.513Z,988.09
2019-06-08T01:06:01.735Z,988.11
2019-06-08T01:07:03.583Z,988.04
2019-06-08T01:08:02.219Z,988.05
2019-06-08T01:09:02.371Z,988.03
2019-06-08T01:10:04.077Z,988.05
2019-06-08T01:11:02.814Z,988.02
2019-06-08T01:12:02.985Z,988.02
2019-06-08T01:13:03.218Z,988.05
2019-06-08T01:14:05.079Z,988.01
2019-06-08T01:15:03.574Z,988.03
2019-06-08T01:16:03.770Z,988.03
2019-06-08T01:17:05.591Z,988.08
2019-06-08T01:18:04.473Z,988.16
2019-06-08T01:19:04.379Z,988.17
2019-06-08T01:20:04.589Z,988.18
2019-06-08T01:21:04.804Z,988.16
2019-06-08T01:22:05.014Z,988.13
2019-06-08T01:23:05.226Z,988.07
2019-06-08T01:24:05.439Z,988.10
2019-06-08T01:25:05.671Z,988.10
2019-06-08T01:26:07.589Z,988.07
2019-06-08T01:27:06.058Z,988.08
2019-06-08T01:28:06.268Z,988.08
2019-06-08T01:29:06.489Z,988.10
2019-06-08T01:30:08.585Z,988.10
2019-06-08T01:31:06.913Z,988.04
2019-06-08T01:32:07.133Z,988.01
2019-06-08T01:33:09.123Z,988.03
2019-06-08T01:34:07.544Z,988.11
2019-06-08T01:35:07.756Z,988.11
2019-06-08T01:36:08.647Z,988.14
2019-06-08T01:37:08.119Z,988.10
2019-06-08T01:38:08.318Z,988.01
2019-06-08T01:39:08.524Z,988.04
2019-06-08T01:40:08.733Z,988.01
2019-06-08T01:41:08.946Z,988.02
2019-06-08T01:42:09.146Z,988.04
2019-06-08T01:43:11.089Z,988.09
2019-06-08T01:44:09.575Z,988.10
2019-06-08T01:45:10.803Z,988.11
2019-06-08T01:46:09.989Z,988.03
2019-06-08T01:47:10.194Z,988.01
2019-06-08T01:48:19.942Z,988.05
2019-06-08T01:49:12.596Z,988.10
2019-06-08T01:50:10.806Z,988.07
2019-06-08T01:51:11.015Z,988.14
2019-06-08T01:52:11.232Z,988.15
2019-06-08T01:53:11.432Z,988.21
2019-06-08T01:54:11.645Z,988.24
2019-06-08T01:55:11.862Z,988.28
2019-06-08T01:56:12.889Z,988.19
2019-06-08T01:57:12.233Z,988.17
2019-06-08T01:58:12.447Z,988.19
2019-06-08T01:59:12.652Z,988.23
2019-06-08T02:00:29.958Z,988.13
2019-06-08T02:01:13.084Z,988.07
2019-06-08T02:02:13.331Z,988.04
2019-06-08T02:03:13.405Z,988.10
2019-06-08T02:04:15.581Z,988.18
2019-06-08T02:05:13.798Z,988.17
2019-06-08T02:06:13.983Z,988.25
2019-06-08T02:07:14.199Z,988.25
2019-06-08T02:08:14.409Z,988.23
2019-06-08T02:09:14.612Z,988.30
2019-06-08T02:10:14.834Z,988.27
2019-06-08T02:11:15.044Z,988.27
2019-06-08T02:12:15.250Z,988.30
2019-06-08T02:13:15.456Z,988.29
2019-06-08T02:14:15.671Z,988.24
2019-06-08T02:15:15.882Z,988.19
2019-06-08T02:16:16.099Z,988.25
2019-06-08T02:17:18.077Z,988.24
2019-06-08T02:18:16.421Z,988.32
2019-06-08T02:19:16.629Z,988.43
2019-06-08T02:20:16.833Z,988.43
2019-06-08T02:21:17.040Z,988.49
2019-06-08T02:22:17.264Z,988.47
2019-06-08T02:23:17.467Z,988.42
2019-06-08T02:24:17.686Z,988.41
2019-06-08T02:25:19.575Z,988.43
2019-06-08T02:26:19.581Z,988.47
2019-06-08T02:27:18.178Z,988.47
2019-06-08T02:28:18.373Z,988.49
2019-06-08T02:29:18.587Z,988.54
2019-06-08T02:30:20.578Z,988.57
2019-06-08T02:31:18.910Z,988.52
2019-06-08T02:32:21.082Z,988.58
2019-06-08T02:33:21.087Z,988.65
2019-06-08T02:34:21.117Z,988.68
2019-06-08T02:35:19.556Z,988.74
2019-06-08T02:36:19.648Z,988.75
2019-06-08T02:37:19.854Z,988.74
2019-06-08T02:38:20.073Z,988.76
2019-06-08T02:39:20.280Z,988.71
2019-06-08T02:40:20.502Z,988.73
2019-06-08T02:41:20.726Z,988.72
2019-06-08T02:42:22.580Z,988.67
2019-06-08T02:43:21.163Z,988.66
2019-06-08T02:44:21.409Z,988.68
2019-06-08T02:45:21.589Z,988.66
2019-06-08T02:46:21.795Z,988.75
2019-06-08T02:47:22.006Z,988.76
2019-06-08T02:48:22.205Z,988.83
2019-06-08T02:49:22.421Z,988.77
2019-06-08T02:50:24.581Z,988.77
2019-06-08T02:51:22.799Z,988.71
2019-06-08T02:52:22.986Z,988.68
2019-06-08T02:53:25.554Z,988.67
2019-06-08T02:54:23.412Z,988.65
2019-06-08T02:55:23.637Z,988.62
2019-06-08T02:56:23.847Z,988.63
2019-06-08T02:57:24.059Z,988.71
2019-06-08T02:58:24.267Z,988.73
2019-06-08T02:59:24.472Z,988.74
2019-06-08T03:00:24.683Z,988.68
2019-06-08T03:01:24.894Z,988.70
2019-06-08T03:02:25.108Z,988.73
2019-06-08T03:03:27.082Z,988.70
2019-06-08T03:04:25.564Z,988.77
2019-06-08T03:05:29.756Z,988.71
2019-06-08T03:06:25.918Z,988.84
2019-06-08T03:07:28.084Z,988.95
2019-06-08T03:08:28.090Z,988.96
2019-06-08T03:09:26.412Z,988.99
2019-06-08T03:10:26.618Z,989.07
2019-06-08T03:11:26.832Z,989.15
2019-06-08T03:12:27.059Z,989.13
2019-06-08T03:13:31.200Z,989.09
2019-06-08T03:14:27.433Z,989.05
2019-06-08T03:15:27.648Z,989.12
2019-06-08T03:16:27.869Z,989.12
2019-06-08T03:17:28.074Z,989.06
2019-06-08T03:18:28.289Z,989.05
2019-06-08T03:19:28.503Z,989.00
2019-06-08T03:20:28.721Z,988.98
2019-06-08T03:21:28.927Z,988.92
2019-06-08T03:22:29.142Z,988.93
2019-06-08T03:23:29.350Z,988.94
2019-06-08T03:24:32.401Z,988.88
2019-06-08T03:25:29.671Z,988.91
2019-06-08T03:26:29.875Z,988.89
2019-06-08T03:27:30.101Z,988.90
2019-06-08T03:28:30.303Z,988.92
2019-06-08T03:29:30.530Z,989.02
2019-06-08T03:30:30.758Z,989.08
2019-06-08T03:31:33.947Z,989.13
2019-06-08T03:32:33.787Z,989.20
2019-06-08T03:33:34.575Z,989.16
2019-06-08T03:34:34.620Z,989.10
2019-06-08T03:35:34.916Z,989.11
2019-06-08T03:36:34.991Z,989.08
2019-06-08T03:37:33.310Z,989.00
2019-06-08T03:38:33.778Z,989.06
2019-06-08T03:39:32.643Z,989.14
2019-06-08T03:40:33.906Z,989.18
2019-06-08T03:41:34.395Z,989.16
2019-06-08T03:42:33.269Z,989.10
2019-06-08T03:43:35.402Z,989.21
2019-06-08T03:44:36.080Z,989.16
2019-06-08T03:45:34.293Z,989.09
2019-06-08T03:46:34.468Z,989.08
2019-06-08T03:47:34.580Z,989.02
2019-06-08T03:48:35.086Z,988.95
2019-06-08T03:49:42.924Z,988.88
2019-06-08T03:50:37.613Z,988.92
2019-06-08T03:51:37.858Z,989.01
2019-06-08T03:52:35.471Z,989.12
2019-06-08T03:53:35.836Z,989.24
2019-06-08T03:54:36.059Z,989.12
2019-06-08T03:55:37.793Z,989.38
2019-06-08T03:56:37.920Z,989.36
2019-06-08T03:57:38.076Z,989.36
2019-06-08T03:58:38.534Z,989.42
2019-06-08T03:59:38.349Z,989.36
2019-06-08T04:00:38.151Z,989.44
2019-06-08T04:01:37.470Z,989.41
2019-06-08T04:02:39.851Z,989.40
2019-06-08T04:03:37.638Z,989.38
2019-06-08T04:04:40.262Z,989.35
2019-06-08T04:05:40.024Z,989.37
2019-06-08T04:06:39.841Z,989.35
2019-06-08T04:07:39.661Z,989.29
2019-06-08T04:08:40.218Z,989.35
2019-06-08T04:09:46.148Z,989.34
2019-06-08T04:10:39.929Z,989.41
2019-06-08T04:11:40.165Z,989.47
2019-06-08T04:12:39.912Z,989.35
2019-06-08T04:13:39.983Z,989.36
2019-06-08T04:14:39.895Z,989.34
2019-06-08T04:15:42.651Z,989.38
2019-06-08T04:16:40.257Z,989.42
2019-06-08T04:17:42.048Z,989.46
2019-06-08T04:18:42.178Z,989.46
2019-06-08T04:20:01.627Z,989.38
2019-06-08T04:20:42.795Z,989.45
2019-06-08T04:21:44.298Z,989.45
2019-06-08T04:22:42.270Z,989.42
2019-06-08T04:23:44.964Z,989.37
2019-06-08T04:24:42.465Z,989.37
2019-06-08T04:25:44.780Z,989.44
2019-06-08T04:26:45.482Z,989.45
2019-06-08T04:27:42.270Z,989.56
2019-06-08T04:28:42.505Z,989.54
2019-06-08T04:29:43.963Z,989.54
2019-06-08T04:30:43.491Z,989.47
2019-06-08T04:31:43.787Z,989.46
2019-06-08T04:32:44.719Z,989.47
2019-06-08T04:33:44.296Z,989.52
2019-06-08T04:34:45.372Z,989.47
2019-06-08T04:35:45.178Z,989.51
2019-06-08T04:36:45.686Z,989.55
2019-06-08T04:37:44.769Z,989.58
2019-06-08T04:38:45.772Z,989.62
2019-06-08T04:39:45.102Z,989.56
2019-06-08T04:40:45.946Z,989.56
2019-06-08T04:41:46.900Z,989.45
2019-06-08T04:42:46.677Z,989.47
2019-06-08T04:43:47.028Z,989.52
2019-06-08T04:44:47.006Z,989.54
2019-06-08T04:45:49.612Z,989.62
2019-06-08T04:46:47.719Z,989.68
2019-06-08T04:47:48.203Z,989.66
2019-06-08T04:48:47.964Z,989.67
2019-06-08T04:49:47.252Z,989.75
2019-06-08T04:50:48.053Z,989.84
2019-06-08T04:51:47.678Z,989.83
2019-06-08T04:52:49.949Z,989.87
2019-06-08T04:53:49.357Z,989.85
2019-06-08T04:54:49.420Z,989.85
2019-06-08T04:55:49.247Z,989.91
2019-06-08T04:56:49.765Z,989.86
2019-06-08T04:57:50.618Z,989.91
2019-06-08T04:58:50.791Z,989.86
2019-06-08T04:59:50.603Z,989.77
2019-06-08T05:00:50.880Z,989.79
2019-06-08T05:01:49.424Z,989.83
2019-06-08T05:02:51.149Z,989.83
2019-06-08T05:03:50.069Z,989.73
2019-06-08T05:04:49.770Z,989.76
2019-06-08T05:05:50.294Z,989.76
2019-06-08T05:06:50.073Z,989.81
2019-06-08T05:07:50.463Z,989.79
2019-06-08T05:08:50.577Z,989.84
2019-06-08T05:09:50.718Z,989.89
2019-06-08T05:10:50.937Z,990.02
2019-06-08T05:11:51.199Z,990.07
2019-06-08T05:12:53.090Z,990.07
2019-06-08T05:13:51.534Z,990.10
2019-06-08T05:14:51.774Z,990.14
2019-06-08T05:15:51.957Z,990.16
2019-06-08T05:16:52.178Z,990.26
2019-06-08T05:17:52.384Z,990.28
2019-06-08T05:18:52.587Z,990.32
2019-06-08T05:19:52.809Z,990.33
2019-06-08T05:20:53.020Z,990.25
2019-06-08T05:21:53.227Z,990.31
2019-06-08T05:22:53.439Z,990.35
2019-06-08T05:23:58.544Z,990.38
2019-06-08T05:24:53.861Z,990.38
2019-06-08T05:25:54.068Z,990.39
2019-06-08T05:26:54.272Z,990.40
2019-06-08T05:27:54.546Z,990.42
2019-06-08T05:28:54.685Z,990.43
2019-06-08T05:29:54.903Z,990.56
2019-06-08T05:30:55.117Z,990.54
2019-06-08T05:31:55.335Z,990.57
2019-06-08T05:32:55.534Z,990.64
2019-06-08T05:33:55.749Z,990.65
2019-06-08T05:34:55.956Z,990.77
2019-06-08T05:35:58.101Z,990.79
2019-06-08T05:36:56.304Z,990.78
2019-06-08T05:37:56.507Z,990.76
2019-06-08T05:38:56.728Z,990.79
2019-06-08T05:39:56.943Z,990.81
2019-06-08T05:40:59.089Z,990.82
2019-06-08T05:41:57.348Z,990.85
2019-06-08T05:42:57.503Z,990.91
2019-06-08T05:43:57.651Z,990.90
2019-06-08T05:44:57.725Z,990.91
2019-06-08T05:45:57.934Z,990.89
2019-06-08T05:47:00.094Z,990.89
2019-06-08T05:47:58.303Z,990.92
2019-06-08T05:48:58.530Z,990.89
2019-06-08T05:50:01.619Z,990.86
2019-06-08T05:51:03.913Z,990.87
2019-06-08T05:51:59.137Z,990.90
2019-06-08T05:52:59.360Z,991.01
2019-06-08T05:54:02.749Z,990.94
2019-06-08T05:54:59.791Z,991.06
2019-06-08T05:56:00.001Z,991.07
2019-06-08T05:57:00.206Z,991.18
2019-06-08T05:58:00.447Z,991.21
2019-06-08T05:59:00.531Z,991.21
2019-06-08T06:00:08.442Z,991.20
2019-06-08T06:01:00.955Z,991.14
2019-06-08T06:02:01.170Z,991.22
2019-06-08T06:03:01.370Z,991.22
2019-06-08T06:04:01.597Z,991.18
2019-06-08T06:05:03.608Z,991.23
2019-06-08T06:06:01.929Z,991.20
2019-06-08T06:07:04.092Z,991.24
2019-06-08T06:08:02.333Z,991.20
2019-06-08T06:09:02.531Z,991.24
2019-06-08T06:10:02.757Z,991.23
2019-06-08T06:11:02.965Z,991.31
2019-06-08T06:12:07.095Z,991.27
2019-06-08T06:13:04.332Z,991.26
2019-06-08T06:14:05.094Z,991.29
2019-06-08T06:15:05.090Z,991.42
2019-06-08T06:16:03.683Z,991.43
2019-06-08T06:17:03.887Z,991.33
2019-06-08T06:18:04.097Z,991.42
2019-06-08T06:19:04.305Z,991.34
2019-06-08T06:20:04.539Z,991.45
2019-06-08T06:21:11.094Z,991.34
2019-06-08T06:22:07.598Z,991.25
2019-06-08T06:23:06.597Z,991.22
2019-06-08T06:24:06.593Z,991.39
2019-06-08T06:25:05.180Z,991.35
2019-06-08T06:26:05.470Z,991.38
2019-06-08T06:27:07.601Z,991.34
2019-06-08T06:28:06.470Z,991.32
2019-06-08T06:29:07.594Z,991.35
2019-06-08T06:30:10.099Z,991.31
2019-06-08T06:31:06.305Z,991.39
2019-06-08T06:32:12.121Z,991.45
2019-06-08T06:33:10.590Z,991.48
2019-06-08T06:34:07.982Z,991.52
2019-06-08T06:35:08.629Z,991.50
2019-06-08T06:36:12.079Z,991.54
2019-06-08T06:37:09.112Z,991.59
2019-06-08T06:38:23.138Z,991.57
2019-06-08T06:39:07.809Z,991.55
2019-06-08T06:40:09.602Z,991.55
2019-06-08T06:41:24.092Z,991.65
2019-06-08T06:42:10.092Z,991.68
2019-06-08T06:43:16.094Z,991.70
2019-06-08T06:44:10.620Z,991.66
2019-06-08T06:45:13.563Z,991.67
2019-06-08T06:46:10.646Z,991.70
2019-06-08T06:47:11.096Z,991.62
2019-06-08T06:48:11.119Z,991.78
2019-06-08T06:49:11.098Z,991.72
2019-06-08T06:50:11.092Z,991.69
2019-06-08T06:51:25.312Z,991.80
2019-06-08T06:52:11.602Z,991.84
2019-06-08T06:53:17.595Z,991.71
2019-06-08T06:54:12.108Z,991.85
2019-06-08T06:55:10.464Z,991.84
2019-06-08T06:56:18.642Z,991.75
2019-06-08T06:57:26.596Z,991.71
2019-06-08T06:58:12.075Z,991.97
2019-06-08T06:59:35.074Z,991.96
2019-06-08T07:00:23.246Z,992.01
2019-06-08T07:01:11.710Z,991.77
2019-06-08T07:02:13.628Z,992.14
2019-06-08T07:03:14.097Z,991.95
2019-06-08T07:04:35.095Z,991.92
2019-06-08T07:05:19.097Z,991.97
2019-06-08T07:06:13.325Z,991.86
2019-06-08T07:07:14.599Z,991.83
2019-06-08T07:08:19.601Z,991.80
2019-06-08T07:09:29.103Z,991.61
2019-06-08T07:10:13.335Z,991.90
2019-06-08T07:11:16.593Z,991.91
2019-06-08T07:12:14.617Z,991.92
2019-06-08T07:13:13.734Z,992.03
2019-06-08T07:14:19.645Z,991.81
2019-06-08T07:15:15.060Z,991.96
2019-06-08T07:16:18.852Z,992.00
2019-06-08T07:17:18.153Z,992.00
2019-06-08T07:18:39.596Z,992.06
2019-06-08T07:19:18.606Z,992.11
2019-06-08T07:20:37.108Z,991.80
2019-06-08T07:21:18.057Z,991.95
2019-06-08T07:22:16.451Z,991.85
2019-06-08T07:23:17.125Z,991.81
2019-06-08T07:24:19.600Z,991.83
2019-06-08T07:25:21.560Z,991.76
2019-06-08T07:26:32.111Z,992.47
2019-06-08T07:27:16.292Z,992.58
2019-06-08T07:28:18.097Z,991.89
2019-06-08T07:29:20.607Z,991.99
2019-06-08T07:30:20.636Z,992.17
2019-06-08T07:31:18.642Z,991.99
2019-06-08T07:32:19.122Z,993.09
2019-06-08T07:33:20.072Z,992.20
2019-06-08T07:34:21.103Z,992.59
2019-06-08T07:35:33.625Z,992.14
2019-06-08T07:36:17.957Z,992.18
2019-06-08T07:37:19.551Z,992.14
2019-06-08T07:38:20.155Z,992.11
2019-06-08T07:39:18.502Z,992.42
2019-06-08T07:40:20.597Z,992.25
2019-06-08T07:41:20.658Z,992.27
2019-06-08T07:42:22.627Z,992.24
2019-06-08T07:43:40.327Z,992.26
2019-06-08T07:44:21.136Z,992.67
2019-06-08T07:45:20.043Z,992.22
2019-06-08T07:46:19.930Z,992.14
2019-06-08T07:47:20.143Z,992.14
2019-06-08T07:49:57.527Z,992.51
2019-06-08T07:50:54.380Z,992.48
2019-06-08T07:52:04.067Z,992.45
2019-06-08T07:52:52.897Z,992.41
2019-06-08T07:53:53.550Z,992.59
2019-06-08T07:54:57.006Z,992.43
2019-06-08T07:55:56.131Z,992.41
2019-06-08T07:56:53.373Z,992.38
2019-06-08T07:57:57.001Z,992.53
2019-06-08T07:58:56.833Z,992.54
2019-06-08T07:59:57.499Z,992.45
2019-06-08T08:00:54.640Z,992.15
2019-06-08T08:01:58.236Z,992.52
2019-06-08T08:02:56.285Z,992.47
2019-06-08T08:03:54.491Z,992.52
2019-06-08T08:04:56.783Z,992.53
2019-06-08T08:05:56.774Z,992.08
2019-06-08T08:06:58.790Z,992.43
2019-06-08T08:08:03.011Z,992.36
2019-06-08T08:08:59.970Z,992.33
2019-06-08T08:09:58.718Z,992.48
2019-06-08T08:10:58.650Z,992.48
2019-06-08T08:11:59.811Z,992.48
2019-06-08T08:13:00.002Z,992.42
2019-06-08T08:14:01.012Z,992.47
2019-06-08T08:14:58.026Z,992.54
2019-06-08T08:16:02.758Z,992.46
2019-06-08T08:17:00.535Z,992.62
2019-06-08T08:17:57.711Z,992.63
2019-06-08T08:18:59.692Z,992.58
2019-06-08T08:20:05.038Z,992.17
2019-06-08T08:21:17.833Z,992.63
2019-06-08T08:22:02.369Z,992.79
2019-06-08T08:23:04.150Z,992.74
2019-06-08T08:24:01.460Z,992.86
2019-06-08T08:25:04.768Z,992.26
2019-06-08T08:26:02.504Z,992.38
2019-06-08T08:27:03.515Z,992.13
2019-06-08T08:28:01.026Z,992.24
2019-06-08T08:29:03.521Z,992.28
2019-06-08T08:30:01.493Z,992.52
2019-06-08T08:31:15.514Z,992.65
2019-06-08T08:32:18.643Z,992.26
2019-06-08T08:33:03.258Z,992.52
2019-06-08T08:34:08.504Z,992.66
2019-06-08T08:35:08.862Z,992.53
2019-06-08T08:36:04.074Z,992.39
2019-06-08T08:37:06.004Z,992.29
2019-06-08T08:38:04.314Z,992.31
2019-06-08T08:39:02.458Z,992.30
2019-06-08T08:40:03.034Z,992.34
2019-06-08T08:41:07.289Z,992.31
2019-06-08T08:42:05.270Z,992.28
2019-06-08T08:43:03.503Z,992.27
2019-06-08T08:44:04.843Z,992.34
2019-06-08T08:45:05.447Z,992.49
2019-06-08T08:46:02.135Z,992.47
2019-06-08T08:47:27.770Z,992.29
2019-06-08T08:48:21.419Z,992.40
2019-06-08T08:49:09.564Z,992.36
2019-06-08T08:50:07.411Z,992.30
2019-06-08T08:51:03.668Z,992.45
2019-06-08T08:52:03.090Z,992.34
2019-06-08T08:53:04.337Z,993.13
2019-06-08T08:54:05.460Z,992.44
2019-06-08T08:55:05.523Z,992.32
2019-06-08T08:56:07.505Z,992.40
2019-06-08T08:57:08.433Z,992.20
2019-06-08T08:58:08.213Z,992.26
2019-06-08T08:59:10.713Z,993.16
2019-06-08T09:00:05.282Z,993.19
2019-06-08T09:01:08.502Z,992.67
2019-06-08T09:02:12.504Z,993.33
2019-06-08T09:03:24.341Z,992.38
2019-06-08T09:04:08.758Z,992.45
2019-06-08T09:05:08.603Z,992.59
2019-06-08T09:06:09.505Z,992.83
2019-06-08T09:07:09.979Z,992.61
2019-06-08T09:08:23.327Z,992.80
2019-06-08T09:09:08.666Z,993.35
2019-06-08T09:10:08.605Z,993.28
2019-06-08T09:11:30.459Z,993.04
2019-06-08T09:12:13.507Z,992.86
2019-06-08T09:13:11.940Z,992.51
2019-06-08T09:14:13.808Z,992.77
2019-06-08T09:15:08.571Z,992.74
2019-06-08T09:16:09.538Z,992.76
2019-06-08T09:17:08.550Z,993.18
2019-06-08T09:18:10.011Z,992.74
2019-06-08T09:19:10.039Z,993.06
2019-06-08T09:20:13.083Z,992.72
2019-06-08T09:21:10.513Z,992.98
2019-06-08T09:22:08.790Z,992.84
2019-06-08T09:23:15.933Z,993.42
2019-06-08T09:24:13.009Z,992.86
2019-06-08T09:25:09.346Z,992.82
2019-06-08T09:26:25.016Z,992.81
2019-06-08T09:27:13.542Z,992.90
2019-06-08T09:28:21.892Z,992.94
2019-06-08T09:29:11.254Z,992.92
2019-06-08T09:30:10.166Z,993.72
2019-06-08T09:31:13.063Z,992.90
2019-06-08T09:32:12.632Z,993.95
2019-06-08T09:33:14.510Z,992.99
2019-06-08T09:34:15.438Z,993.04
2019-06-08T09:35:11.111Z,993.10
2019-06-08T09:36:11.323Z,993.60
2019-06-08T09:37:13.506Z,993.45
2019-06-08T09:38:18.386Z,993.04
2019-06-08T09:39:14.089Z,993.19
2019-06-08T09:40:14.013Z,993.09
2019-06-08T09:41:18.471Z,993.05
2019-06-08T09:42:12.365Z,993.14
2019-06-08T09:43:18.726Z,993.93
2019-06-08T09:44:12.828Z,993.76
2019-06-08T09:45:12.977Z,993.16
2019-06-08T09:46:14.135Z,993.47
2019-06-08T09:47:17.578Z,994.00
2019-06-08T09:48:18.053Z,993.23
2019-06-08T09:49:14.642Z,994.06
2019-06-08T09:50:18.272Z,992.99
2019-06-08T09:51:18.666Z,993.19
2019-06-08T09:52:35.277Z,993.06
2019-06-08T09:53:23.812Z,993.04
2019-06-08T09:54:17.963Z,993.09
2019-06-08T09:55:14.770Z,993.19
2019-06-08T09:56:18.744Z,993.22
2019-06-08T09:57:22.989Z,993.19
2019-06-08T09:58:19.035Z,993.33
2019-06-08T09:59:19.243Z,993.25
2019-06-08T10:00:21.317Z,993.31
2019-06-08T10:01:18.263Z,994.32
2019-06-08T10:02:18.454Z,994.31
2019-06-08T10:03:18.413Z,994.35
2019-06-08T10:04:16.404Z,993.48
2019-06-08T10:05:18.968Z,993.66
2019-06-08T10:06:19.469Z,993.48
2019-06-08T10:07:18.634Z,993.54
2019-06-08T10:08:20.237Z,993.39
2019-06-08T10:09:19.488Z,993.45
2019-06-08T10:10:18.147Z,993.52
2019-06-08T10:11:17.635Z,993.31
2019-06-08T10:12:18.869Z,993.40
2019-06-08T10:13:18.902Z,993.40
2019-06-08T10:14:20.051Z,993.36
2019-06-08T10:15:20.013Z,994.17
2019-06-08T10:16:20.577Z,993.36
2019-06-08T10:17:22.605Z,993.28
2019-06-08T10:18:19.110Z,993.29
2019-06-08T10:19:21.013Z,993.31
2019-06-08T10:20:19.347Z,993.32
2019-06-08T10:21:22.572Z,993.34
2019-06-08T10:22:20.861Z,993.37
2019-06-08T10:23:30.606Z,993.37
2019-06-08T10:24:21.257Z,993.39
2019-06-08T10:25:20.375Z,993.37
2019-06-08T10:26:20.577Z,993.48
2019-06-08T10:27:22.553Z,993.36
2019-06-08T10:28:21.896Z,993.48
2019-06-08T10:29:21.303Z,993.58
2019-06-08T10:30:25.012Z,994.07
2019-06-08T10:31:43.026Z,993.65
2019-06-08T10:32:23.514Z,993.50
2019-06-08T10:33:22.051Z,993.56
2019-06-08T10:34:23.294Z,993.53
2019-06-08T10:35:22.531Z,993.58
2019-06-08T10:36:28.160Z,993.47
2019-06-08T10:37:33.726Z,993.46
2019-06-08T10:38:22.971Z,993.57
2019-06-08T10:39:31.015Z,993.59
2019-06-08T10:40:25.015Z,993.55
2019-06-08T10:41:27.865Z,993.44
2019-06-08T10:42:24.607Z,993.56
2019-06-08T10:43:25.538Z,993.45
2019-06-08T10:44:24.003Z,993.54
2019-06-08T10:45:28.457Z,993.61
2019-06-08T10:46:25.383Z,993.77
2019-06-08T10:47:29.520Z,993.58
2019-06-08T10:48:27.626Z,993.52
2019-06-08T10:49:31.029Z,993.61
2019-06-08T10:50:25.234Z,993.61
2019-06-08T10:51:26.480Z,993.61
2019-06-08T10:52:28.154Z,993.65
2019-06-08T10:53:32.642Z,993.66
2019-06-08T10:54:27.790Z,993.67
2019-06-08T10:55:29.545Z,993.64
2019-06-08T10:56:34.019Z,993.62
2019-06-08T10:57:33.024Z,993.58
2019-06-08T10:58:28.367Z,993.64
2019-06-08T10:59:28.997Z,993.55
2019-06-08T11:00:28.574Z,993.62
2019-06-08T11:01:33.024Z,993.60
2019-06-08T11:02:28.383Z,993.61
2019-06-08T11:03:30.677Z,993.57
2019-06-08T11:04:29.530Z,993.66
2019-06-08T11:05:31.520Z,993.68
2019-06-08T11:06:29.544Z,993.74
2019-06-08T11:07:29.566Z,993.78
2019-06-08T11:08:38.852Z,993.67
2019-06-08T11:09:28.641Z,993.78
2019-06-08T11:10:28.580Z,993.67
2019-06-08T11:11:28.771Z,993.70
2019-06-08T11:12:30.418Z,993.75
2019-06-08T11:13:31.030Z,993.73
2019-06-08T11:14:31.058Z,993.76
2019-06-08T11:15:31.030Z,993.71
2019-06-08T11:16:29.654Z,993.81
2019-06-08T11:17:29.754Z,993.75
2019-06-08T11:18:29.986Z,993.80
2019-06-08T11:19:30.119Z,993.88
2019-06-08T11:20:32.024Z,994.09
2019-06-08T11:21:30.363Z,993.92
2019-06-08T11:22:33.602Z,993.97
2019-06-08T11:23:32.519Z,993.93
2019-06-08T11:24:32.524Z,993.94
2019-06-08T11:25:42.611Z,993.85
2019-06-08T11:26:33.022Z,993.81
2019-06-08T11:27:38.758Z,993.82
2019-06-08T11:28:33.524Z,993.78
2019-06-08T11:29:38.139Z,993.83
2019-06-08T11:30:33.529Z,993.79
2019-06-08T11:31:33.524Z,993.75
2019-06-08T11:32:32.179Z,993.78
2019-06-08T11:33:34.052Z,993.64
2019-06-08T11:34:32.534Z,993.83
2019-06-08T11:35:34.525Z,993.86
2019-06-08T11:36:32.861Z,993.79
2019-06-08T11:37:33.083Z,993.77
2019-06-08T11:38:35.041Z,993.78
2019-06-08T11:39:38.208Z,993.73
2019-06-08T11:40:34.631Z,993.80
2019-06-08T11:41:33.868Z,993.84
2019-06-08T11:42:34.079Z,993.79
2019-06-08T11:43:35.236Z,993.89
2019-06-08T11:44:38.761Z,993.82
2019-06-08T11:45:37.855Z,993.91
2019-06-08T11:46:38.442Z,993.97
2019-06-08T11:47:39.122Z,993.94
2019-06-08T11:48:39.278Z,994.03
2019-06-08T11:49:35.183Z,994.01
2019-06-08T11:50:35.287Z,994.06
2019-06-08T11:51:37.669Z,994.01
2019-06-08T11:52:38.069Z,993.90
2019-06-08T11:53:38.302Z,993.94
2019-06-08T11:54:38.094Z,993.96
2019-06-08T11:55:38.454Z,993.91
2019-06-08T11:56:44.023Z,994.02
2019-06-08T11:57:37.312Z,994.04
2019-06-08T11:58:38.544Z,993.98
2019-06-08T11:59:39.027Z,994.01
2019-06-08T12:00:39.029Z,993.94
2019-06-08T12:01:37.488Z,994.07
2019-06-08T12:02:41.307Z,994.02
2019-06-08T12:03:39.534Z,994.07
2019-06-08T12:04:39.525Z,994.04
2019-06-08T12:05:41.031Z,994.20
2019-06-08T12:06:38.244Z,994.18
2019-06-08T12:07:40.072Z,994.07
2019-06-08T12:08:42.520Z,994.25
2019-06-08T12:09:40.525Z,994.09
2019-06-08T12:10:42.531Z,994.11
2019-06-08T12:11:39.116Z,994.21
2019-06-08T12:12:39.331Z,994.24
2019-06-08T12:13:40.542Z,994.18
2019-06-08T12:14:41.525Z,994.29
2019-06-08T12:15:43.530Z,994.29
2019-06-08T12:17:03.441Z,994.25
2019-06-08T12:17:44.032Z,994.32
2019-06-08T12:18:44.080Z,994.32
2019-06-08T12:19:42.040Z,994.28
2019-06-08T12:20:40.737Z,994.45
2019-06-08T12:21:41.006Z,994.31
2019-06-08T12:22:43.071Z,994.27
2019-06-08T12:23:41.312Z,994.35
2019-06-08T12:24:43.074Z,994.32
2019-06-08T12:25:41.742Z,994.28
2019-06-08T12:26:43.528Z,994.29
2019-06-08T12:27:44.040Z,994.36
2019-06-08T12:28:44.028Z,994.31
2019-06-08T12:29:42.623Z,994.35
2019-06-08T12:30:42.845Z,994.32
2019-06-08T12:31:45.029Z,994.26
2019-06-08T12:32:43.254Z,994.30